createdAt,value
2022-09-28T14:24:42.044Z,1.00
2022-09-28T14:35:18.937Z,0.80
2022-09-28T14:45:42.380Z,1.10
2022-09-28T14:56:08.791Z,1.20
2022-09-28T15:06:46.511Z,2.00
2022-09-28T15:17:13.380Z,1.33
2022-09-28T15:27:37.568Z,0.65
2022-09-28T15:37:59.131Z,0.85
2022-09-28T16:09:40.271Z,0.80
2022-09-28T16:20:18.727Z,0.73
2022-09-28T16:31:03.269Z,0.73
2022-09-28T16:41:28.920Z,0.82
2022-09-28T16:51:50.438Z,0.90
2022-09-28T17:02:35.298Z,0.80
2022-09-28T17:12:59.881Z,0.90
2022-09-28T17:23:22.121Z,1.58
2022-09-28T17:33:44.247Z,2.28
2022-09-28T17:44:06.455Z,1.70
2022-09-28T17:54:28.302Z,2.25
2022-09-28T18:04:52.209Z,3.05
2022-09-28T18:15:15.133Z,3.20
2022-09-28T18:25:41.421Z,3.17
2022-09-28T18:36:04.389Z,3.90
2022-09-28T18:46:27.858Z,3.13
2022-09-28T18:56:51.189Z,3.63
2022-09-28T19:07:12.772Z,6.10
2022-09-28T19:17:34.293Z,4.18
2022-09-28T19:27:55.749Z,4.47
2022-09-28T19:38:17.199Z,4.40
2022-09-28T19:48:42.335Z,6.03
2022-09-28T19:59:03.923Z,6.38
2022-09-28T20:09:25.489Z,6.07
2022-09-28T20:19:47.962Z,5.90
2022-09-28T20:30:11.079Z,5.20
2022-09-28T20:40:32.667Z,5.25
2022-09-28T20:51:03.162Z,5.40
2022-09-28T21:01:27.188Z,6.50
2022-09-28T21:11:48.809Z,6.93
2022-09-28T21:22:10.291Z,6.80
2022-09-28T21:32:35.121Z,5.97
2022-09-28T21:42:56.733Z,6.50
2022-09-28T21:53:18.183Z,6.27
2022-09-28T22:03:39.768Z,6.67
2022-09-28T22:14:01.470Z,6.30
2022-09-28T22:24:23.089Z,5.65
2022-09-28T22:34:44.578Z,5.57
2022-09-28T22:45:06.605Z,5.80
2022-09-28T22:55:29.096Z,5.88
2022-09-28T23:05:55.723Z,6.03
2022-09-28T23:16:17.902Z,6.15
2022-09-28T23:26:39.403Z,6.55
2022-09-28T23:37:00.852Z,6.77
2022-09-28T23:47:22.461Z,7.03
2022-09-28T23:57:44.091Z,7.37
